Time;durP1;ratioP1;P1;durP2;ratioP2;P2;SDS_P1;SDS_P2;PMS_P1;PMS_P2;Temp;Humidity;BMP_temperature;BMP_pressure;BME280_temperature;BME280_humidity;BME280_pressure;Samples;Min_cycle;Max_cycle;Signal;HPM_P1;HPM_P2
2022/06/13 00:01:15;;;;;;;6.63;4.47;;;;;;;17.65;100.00;98343.06;5053625;28;20205;-68
2022/06/13 00:03:41;;;;;;;11.60;4.50;;;;;;;17.61;100.00;98339.25;5054128;28;20750;-68
2022/06/13 00:06:08;;;;;;;5.50;3.83;;;;;;;17.61;100.00;98325.81;5053852;28;20220;-68
2022/06/13 00:08:35;;;;;;;4.53;3.40;;;;;;;17.60;100.00;98306.16;5053064;28;20606;-67
2022/06/13 00:11:03;;;;;;;6.30;4.17;;;;;;;17.76;100.00;98323.22;5053503;28;20205;-67
2022/06/13 00:13:29;;;;;;;6.13;3.83;;;;;;;17.77;100.00;98336.44;5053415;28;20217;-67
2022/06/13 00:15:55;;;;;;;4.40;3.77;;;;;;;17.80;100.00;98322.47;5053505;28;20296;-67
2022/06/13 00:18:22;;;;;;;5.07;3.83;;;;;;;17.75;100.00;98325.13;5053399;28;20232;-68
2022/06/13 00:20:48;;;;;;;4.80;3.67;;;;;;;17.67;100.00;98328.28;5053437;28;20216;-68
2022/06/13 00:23:15;;;;;;;6.83;3.97;;;;;;;17.66;100.00;98323.16;5053431;28;20208;-67
2022/06/13 00:25:41;;;;;;;4.47;3.37;;;;;;;17.60;100.00;98327.69;5053109;28;20296;-67
2022/06/13 00:28:08;;;;;;;4.10;3.70;;;;;;;17.64;100.00;98330.69;5053326;28;20320;-68
2022/06/13 00:30:34;;;;;;;4.73;4.00;;;;;;;17.70;100.00;98318.91;5053318;28;20255;-68
2022/06/13 00:33:01;;;;;;;5.37;4.00;;;;;;;17.62;100.00;98312.13;5053261;28;20337;-68
2022/06/13 00:35:27;;;;;;;4.40;4.00;;;;;;;17.62;100.00;98312.13;5053302;28;20205;-68
2022/06/13 00:37:53;;;;;;;6.07;3.87;;;;;;;17.68;100.00;98315.63;5052900;28;20675;-67
2022/06/13 00:40:20;;;;;;;6.60;3.97;;;;;;;17.52;100.00;98316.59;5053239;28;20205;-67
2022/06/13 00:42:47;;;;;;;7.30;3.90;;;;;;;17.56;100.00;98312.34;5053230;28;20203;-67
2022/06/13 00:45:16;;;;;;;4.40;4.00;;;;;;;17.58;100.00;98302.94;5052906;28;20704;-67
2022/06/13 00:47:45;;;;;;;3.83;3.40;;;;;;;17.62;100.00;98303.22;5052807;28;20233;-68
2022/06/13 00:50:35;;;;;;;4.20;3.73;;;;;;;17.57;100.00;98303.19;5052828;28;20205;-68
2022/06/13 00:53:10;;;;;;;6.27;4.27;;;;;;;17.44;100.00;98298.25;5056807;28;20213;-68
2022/06/13 00:56:04;;;;;;;5.70;3.53;;;;;;;17.44;100.00;98293.69;5057017;28;20201;-67
2022/06/13 00:58:36;;;;;;;6.73;3.87;;;;;;;17.44;100.00;98282.94;5056893;28;20312;-68
2022/06/13 01:01:03;;;;;;;6.37;4.13;;;;;;;17.47;100.00;98287.78;5056927;28;20193;-68
2022/06/13 01:03:30;;;;;;;5.70;4.23;;;;;;;17.44;100.00;98279.44;5056853;28;20289;-68
2022/06/13 01:06:00;;;;;;;7.47;3.83;;;;;;;17.53;100.00;98275.19;5056498;28;20236;-68
2022/06/13 01:08:27;;;;;;;3.77;3.53;;;;;;;17.43;100.00;98278.66;5056370;28;20782;-68
2022/06/13 01:11:16;;;;;;;5.73;4.00;;;;;;;17.52;100.00;98287.84;5056721;28;20198;-68
2022/06/13 01:14:34;;;;;;;5.10;4.07;;;;;;;17.47;100.00;98277.03;5055613;28;20286;-68
2022/06/13 01:17:25;;;;;;;5.10;3.60;;;;;;;17.41;100.00;98275.38;5047783;28;20212;-68
2022/06/13 01:19:52;;;;;;;6.07;3.80;;;;;;;17.28;100.00;98291.91;5055428;28;20276;-68
2022/06/13 01:22:46;;;;;;;4.10;3.70;;;;;;;17.41;100.00;98285.34;5056956;28;20535;-68
2022/06/13 01:25:40;;;;;;;4.77;3.20;;;;;;;17.38;100.00;98275.06;5056279;28;20200;-68
2022/06/13 01:28:33;;;;;;;4.43;3.10;;;;;;;17.42;100.00;98284.28;5056395;28;20221;-68
2022/06/13 01:31:28;;;;;;;3.93;2.87;;;;;;;17.44;100.00;98277.56;5055015;28;20538;-68
2022/06/13 01:34:25;;;;;;;3.83;3.30;;;;;;;17.38;100.00;98283.13;5056241;28;20300;-68
2022/06/13 01:37:25;;;;;;;3.90;3.27;;;;;;;17.36;100.00;98277.19;5055974;28;20185;-68
2022/06/13 01:40:20;;;;;;;6.07;3.50;;;;;;;17.40;100.00;98281.00;5055215;28;20189;-68
2022/06/13 01:43:01;;;;;;;6.17;4.00;;;;;;;17.33;100.00;98272.34;5056165;28;20207;-68
2022/06/13 01:45:43;;;;;;;4.17;3.67;;;;;;;17.21;100.00;98267.13;5054918;28;20189;-69
2022/06/13 01:48:29;;;;;;;8.47;3.67;;;;;;;17.18;100.00;98262.25;5055928;28;20221;-68
2022/06/13 01:51:14;;;;;;;3.67;3.33;;;;;;;17.21;100.00;98255.56;5056522;28;20193;-68
2022/06/13 01:53:52;;;;;;;4.93;3.80;;;;;;;17.17;100.00;98279.47;5054508;28;20574;-68
2022/06/13 01:56:25;;;;;;;5.53;3.37;;;;;;;17.18;100.00;98264.13;5055940;28;20225;-68
2022/06/13 01:58:59;;;;;;;4.43;3.67;;;;;;;17.17;100.00;98276.78;5055808;28;20319;-68
2022/06/13 02:01:50;;;;;;;5.10;3.67;;;;;;;17.14;100.00;98282.66;5055825;28;20280;-68
2022/06/13 02:04:23;;;;;;;4.93;4.30;;;;;;;17.25;100.00;98286.25;5055059;28;20196;-68
2022/06/13 02:07:09;;;;;;;3.73;3.30;;;;;;;17.08;100.00;98288.22;5055352;28;20292;-68
2022/06/13 02:10:00;;;;;;;4.13;3.73;;;;;;;17.14;100.00;98295.28;5055198;28;20233;-68
2022/06/13 02:12:30;;;;;;;4.37;3.20;;;;;;;17.07;100.00;98294.66;5055229;28;20190;-68
2022/06/13 02:15:07;;;;;;;4.50;3.20;;;;;;;17.12;100.00;98300.91;5055507;28;20232;-69
2022/06/13 02:17:42;;;;;;;4.70;3.10;;;;;;;17.10;100.00;98300.34;5054311;28;20199;-68
2022/06/13 02:20:19;;;;;;;3.97;3.30;;;;;;;17.13;100.00;98302.53;5055467;28;20203;-68
2022/06/13 02:22:59;;;;;;;3.73;2.90;;;;;;;17.10;100.00;98311.09;5055058;28;20228;-68
2022/06/13 02:25:43;;;;;;;3.13;2.80;;;;;;;16.98;100.00;98301.56;5055391;28;20193;-69
2022/06/13 02:28:39;;;;;;;2.87;2.67;;;;;;;16.99;100.00;98297.81;5055239;28;20229;-69
2022/06/13 02:31:14;;;;;;;3.43;2.70;;;;;;;16.96;100.00;98293.75;5054158;28;20194;-68
2022/06/13 02:33:47;;;;;;;3.27;2.63;;;;;;;17.00;100.00;98294.03;5055142;28;20217;-69
2022/06/13 02:36:26;;;;;;;3.00;2.60;;;;;;;16.91;100.00;98293.69;5055114;28;20195;-68
2022/06/13 02:39:05;;;;;;;4.10;2.63;;;;;;;16.96;100.00;98299.13;5053857;28;20237;-68
2022/06/13 02:41:43;;;;;;;4.40;3.07;;;;;;;16.89;100.00;98290.47;5054402;28;20196;-69
2022/06/13 02:44:17;;;;;;;4.93;2.70;;;;;;;16.76;100.00;98290.88;5055025;28;20529;-68
2022/06/13 02:46:49;;;;;;;4.13;3.07;;;;;;;16.64;100.00;98286.72;5053764;28;20231;-68
2022/06/13 02:49:32;;;;;;;4.67;2.90;;;;;;;16.59;100.00;98279.41;5054534;28;20225;-69
2022/06/13 02:52:17;;;;;;;6.27;2.83;;;;;;;16.59;100.00;98292.81;5054820;28;20275;-68
2022/06/13 02:54:57;;;;;;;6.83;2.97;;;;;;;16.62;100.00;98289.66;5053539;28;20213;-68
2022/06/13 02:57:49;;;;;;;4.20;3.10;;;;;;;16.54;100.00;98291.94;5053448;28;20347;-68
2022/06/13 03:00:36;;;;;;;3.60;2.80;;;;;;;16.38;100.00;98288.22;5054510;28;20185;-68
2022/06/13 03:03:23;;;;;;;3.60;2.97;;;;;;;16.40;100.00;98296.06;5054324;28;20197;-68
2022/06/13 03:06:28;;;;;;;4.93;3.13;;;;;;;16.33;100.00;98296.22;5054208;28;20712;-69
2022/06/13 03:09:09;;;;;;;8.40;3.30;;;;;;;16.18;100.00;98298.72;5054341;28;20290;-68
2022/06/13 03:11:59;;;;;;;5.27;3.20;;;;;;;16.18;100.00;98292.53;5054253;28;20205;-68
2022/06/13 03:14:37;;;;;;;9.00;2.67;;;;;;;16.13;100.00;98295.97;5053326;28;20587;-69
2022/06/13 03:17:42;;;;;;;4.97;2.77;;;;;;;16.14;100.00;98294.91;5054116;28;20289;-68
2022/06/13 03:20:26;;;;;;;6.60;3.50;;;;;;;16.06;100.00;98297.22;5012078;28;20232;-68
2022/06/13 03:23:04;;;;;;;4.20;2.90;;;;;;;16.00;100.00;98285.59;5047607;28;20205;-68
2022/06/13 03:25:46;;;;;;;5.70;3.30;;;;;;;15.93;100.00;98293.00;5052918;28;20217;-68
2022/06/13 03:28:16;;;;;;;5.80;2.83;;;;;;;15.89;100.00;98302.63;5052848;28;20327;-68
2022/06/13 03:30:56;;;;;;;6.50;3.13;;;;;;;15.85;100.00;98298.81;5053869;28;20316;-68
2022/06/13 03:33:42;;;;;;;9.67;3.13;;;;;;;15.78;100.00;98298.16;5053736;28;20300;-69
2022/06/13 03:36:27;;;;;;;5.97;3.30;;;;;;;15.74;100.00;98302.38;5053767;28;20194;-68
2022/06/13 03:39:03;;;;;;;7.50;3.50;;;;;;;15.70;100.00;98311.97;5053670;28;20312;-68
2022/06/13 03:41:35;;;;;;;4.93;2.93;;;;;;;15.63;100.00;98310.50;5053423;28;20715;-68
2022/06/13 03:44:14;;;;;;;6.93;3.03;;;;;;;15.63;100.00;98310.50;5053480;28;20276;-68
2022/06/13 03:46:55;;;;;;;6.90;3.10;;;;;;;15.77;100.00;98317.16;5053706;28;20192;-68
2022/06/13 03:49:31;;;;;;;6.17;3.30;;;;;;;15.68;100.00;98319.44;5053516;28;20316;-68
2022/06/13 03:52:01;;;;;;;7.07;3.30;;;;;;;15.60;100.00;98324.41;5053628;28;20276;-68
2022/06/13 03:54:35;;;;;;;7.47;3.03;;;;;;;15.59;100.00;98317.41;5053109;28;20698;-68
2022/06/13 03:57:16;;;;;;;8.17;3.23;;;;;;;15.57;100.00;98322.22;5053584;28;20195;-68
2022/06/13 03:59:48;;;;;;;4.97;2.93;;;;;;;15.67;100.00;98319.69;5053447;28;20225;-68
2022/06/13 04:02:17;;;;;;;4.53;3.20;;;;;;;15.56;100.00;98326.75;5053403;28;20284;-68
2022/06/13 04:04:53;;;;;;;3.77;3.00;;;;;;;15.49;100.00;98318.09;5053011;28;20296;-68
2022/06/13 04:07:21;;;;;;;6.07;3.03;;;;;;;15.56;100.00;98316.03;5053301;28;20193;-69
2022/06/13 04:10:00;;;;;;;8.53;3.43;;;;;;;15.65;100.00;98311.09;5053149;28;20233;-68
2022/06/13 04:12:35;;;;;;;7.10;3.30;;;;;;;15.57;100.00;98312.31;5053362;28;20276;-68
2022/06/13 04:15:46;;;;;;;4.70;3.30;;;;;;;15.52;99.52;98316.78;5052977;28;20691;-68
2022/06/13 04:18:51;;;;;;;5.73;3.20;;;;;;;15.38;100.00;98310.91;5051754;28;20221;-68
2022/06/13 04:21:36;;;;;;;6.60;3.60;;;;;;;15.39;100.00;98320.59;5011205;28;20209;-68
2022/06/13 04:24:47;;;;;;;10.77;3.73;;;;;;;15.48;99.30;98310.28;5011049;28;20193;-68
2022/06/13 04:27:21;;;;;;;7.03;3.47;;;;;;;15.47;100.00;98322.84;5034549;28;20209;-68
2022/06/13 04:30:14;;;;;;;8.83;3.33;;;;;;;15.34;100.00;98314.34;5056118;28;20247;-68
2022/06/13 04:32:49;;;;;;;6.27;3.40;;;;;;;15.50;93.06;98327.75;5055992;28;20586;-68
2022/06/13 04:35:17;;;;;;;7.93;3.37;;;;;;;15.38;99.29;98337.69;5055934;28;20227;-68
2022/06/13 04:37:44;;;;;;;7.90;2.87;;;;;;;15.43;94.20;98329.75;5056760;28;20743;-69
2022/06/13 04:40:18;;;;;;;8.93;3.00;;;;;;;15.40;88.96;98343.66;5056812;28;20243;-68
2022/06/13 04:42:46;;;;;;;8.47;3.10;;;;;;;15.48;92.81;98337.91;5055463;28;20194;-68
2022/06/13 04:45:21;;;;;;;6.10;3.20;;;;;;;15.62;88.06;98347.25;5055201;28;20290;-68
2022/06/13 04:47:49;;;;;;;8.23;2.83;;;;;;;15.42;95.27;98338.84;5056028;28;20656;-68
2022/06/13 04:50:22;;;;;;;7.30;3.10;;;;;;;15.37;93.05;98348.69;5056719;28;20216;-68
2022/06/13 04:52:52;;;;;;;7.70;3.10;;;;;;;15.33;93.36;98352.88;5055329;28;20277;-68
2022/06/13 04:55:33;;;;;;;7.57;3.43;;;;;;;15.28;94.27;98350.91;5056379;28;20634;-68
2022/06/13 04:58:00;;;;;;;5.23;3.03;;;;;;;15.53;89.93;98359.41;5056399;28;20311;-68
2022/06/13 05:00:28;;;;;;;6.10;3.10;;;;;;;15.45;92.46;98367.84;5054695;28;20209;-68
2022/06/13 05:02:57;;;;;;;9.33;3.60;;;;;;;15.41;92.61;98368.56;5056279;28;20219;-68
2022/06/13 05:05:37;;;;;;;5.23;3.03;;;;;;;15.72;88.35;98363.47;5056184;28;20204;-68
2022/06/13 05:08:24;;;;;;;8.03;3.27;;;;;;;15.96;86.21;98372.97;5055557;28;20225;-68
2022/06/13 05:10:54;;;;;;;6.53;2.90;;;;;;;16.35;81.52;98388.03;5056163;28;20273;-68
2022/06/13 05:13:22;;;;;;;8.73;3.03;;;;;;;16.31;83.44;98378.03;5055213;28;20205;-68
2022/06/13 05:15:56;;;;;;;9.93;3.23;;;;;;;16.60;83.17;98382.22;5055588;28;20205;-68
2022/06/13 05:18:34;;;;;;;7.47;3.33;;;;;;;17.26;77.92;98385.41;5055957;28;20235;-68
2022/06/13 05:21:27;;;;;;;9.80;3.23;;;;;;;17.58;69.83;98396.22;5055639;28;20712;-68
2022/06/13 05:24:11;;;;;;;6.67;2.90;;;;;;;17.35;77.59;98404.56;5055676;28;20276;-68
2022/06/13 05:26:38;;;;;;;5.83;2.80;;;;;;;17.82;73.30;98392.94;5055399;28;20280;-68
2022/06/13 05:29:04;;;;;;;9.00;2.90;;;;;;;17.12;75.74;98403.00;5055750;28;20229;-68
2022/06/13 05:31:31;;;;;;;5.87;2.80;;;;;;;16.84;77.02;98405.06;5055955;28;20296;-68
2022/06/13 05:33:58;;;;;;;6.43;2.67;;;;;;;16.60;80.39;98398.34;5055428;28;20774;-68
2022/06/13 05:36:27;;;;;;;7.13;2.90;;;;;;;16.42;80.06;98418.19;5055379;28;20206;-68
2022/06/13 05:38:59;;;;;;;7.20;2.93;;;;;;;16.40;79.89;98409.59;5055080;28;20320;-68
2022/06/13 05:41:25;;;;;;;9.50;3.33;;;;;;;16.41;81.05;98413.06;5054006;28;20277;-68
2022/06/13 05:43:53;;;;;;;8.47;3.13;;;;;;;16.60;80.59;98417.13;5054633;28;20235;-68
2022/06/13 05:46:27;;;;;;;8.17;3.40;;;;;;;16.62;78.07;98421.19;5055350;28;20231;-69
2022/06/13 05:48:54;;;;;;;8.13;3.10;;;;;;;16.63;77.89;98424.66;5054150;28;20232;-68
2022/06/13 05:51:21;;;;;;;6.30;3.10;;;;;;;16.85;76.97;98426.31;5055284;28;20213;-68
2022/06/13 05:53:48;;;;;;;5.27;3.00;;;;;;;16.65;79.81;98426.03;5055193;28;20239;-68
2022/06/13 05:56:14;;;;;;;7.63;3.13;;;;;;;16.64;74.30;98439.72;5054740;28;20296;-68
2022/06/13 05:58:41;;;;;;;6.30;3.00;;;;;;;16.67;73.67;98441.91;5054640;28;20308;-68
2022/06/13 06:01:08;;;;;;;7.20;2.73;;;;;;;16.90;77.09;98430.91;5055260;28;20210;-68
2022/06/13 06:03:34;;;;;;;8.10;2.87;;;;;;;17.09;74.48;98438.41;5054907;28;20651;-68
2022/06/13 06:06:02;;;;;;;14.00;3.40;;;;;;;17.02;72.89;98442.34;5055155;28;20288;-68
2022/06/13 06:08:36;;;;;;;7.50;3.00;;;;;;;16.91;77.29;98444.09;5053419;28;20233;-68
2022/06/13 06:11:03;;;;;;;5.10;2.60;;;;;;;16.89;74.54;98450.78;5054774;28;20189;-68
2022/06/13 06:13:30;;;;;;;7.73;2.73;;;;;;;16.94;76.82;98453.53;5054576;28;20292;-68
2022/06/13 06:16:00;;;;;;;5.97;2.87;;;;;;;17.09;75.18;98454.53;5054952;28;20207;-68
2022/06/13 06:18:28;;;;;;;8.63;2.93;;;;;;;17.05;76.24;98455.31;5054805;28;20788;-69
2022/06/13 06:20:55;;;;;;;7.40;2.70;;;;;;;17.04;70.71;98465.22;5054764;28;20308;-68
2022/06/13 06:23:21;;;;;;;8.47;3.10;;;;;;;17.12;76.46;98469.34;5055086;28;20205;-69
2022/06/13 06:25:48;;;;;;;6.10;2.70;;;;;;;17.02;72.40;98462.00;5056419;28;20288;-68
2022/06/13 06:28:22;;;;;;;5.93;2.67;;;;;;;17.03;73.26;98468.16;5073156;28;20362;-69
2022/06/13 06:30:49;;;;;;;8.17;3.00;;;;;;;17.16;69.76;98473.97;5074772;28;20193;-68
2022/06/13 06:37:24;;;;;;;5.47;2.57;;;;;;;17.43;69.00;98472.19;5071649;28;20222;-70
2022/06/13 06:40:22;;;;;;;5.73;2.20;;;;;;;17.46;68.11;98485.09;5074499;28;20207;-69
2022/06/13 06:45:54;;;;;;;8.17;2.80;;;;;;;17.86;65.90;98479.31;5032671;28;20206;-69
2022/06/13 06:49:14;;;;;;;5.90;2.30;;;;;;;17.62;61.75;98488.75;5031399;28;20222;-69
2022/06/13 06:51:43;;;;;;;6.03;2.40;;;;;;;17.65;62.12;98477.50;5026659;28;20202;-68
2022/06/13 07:02:23;;;;;;;8.60;2.50;;;;;;;17.90;61.28;98492.00;5072665;28;20208;-69
2022/06/13 07:05:22;;;;;;;7.50;2.90;;;;;;;17.89;63.24;98489.56;5062931;28;20251;-68
2022/06/13 07:11:53;;;;;;;5.90;2.57;;;;;;;18.00;62.46;98483.22;5053152;28;20301;-69
2022/06/13 07:17:05;;;;;;;5.47;2.43;;;;;;;18.26;64.23;98487.72;5038847;28;20223;-69
2022/06/13 07:19:36;;;;;;;6.00;2.50;;;;;;;18.31;63.47;98490.47;5053752;28;20220;-69
2022/06/13 07:25:08;;;;;;;9.50;2.70;;;;;;;18.08;63.47;98490.81;5050299;28;20205;-68
2022/06/13 07:28:14;;;;;;;8.13;2.70;;;;;;;18.05;62.68;98496.72;5052584;28;20209;-69
2022/06/13 07:30:45;;;;;;;9.07;2.60;;;;;;;18.21;64.62;98507.34;5051696;28;20213;-68
2022/06/13 07:33:15;;;;;;;8.53;2.70;;;;;;;18.05;61.36;98505.59;5053393;28;20304;-69
2022/06/13 07:35:58;;;;;;;6.40;2.43;;;;;;;18.29;62.92;98501.50;5052696;28;20225;-69
2022/06/13 07:38:38;;;;;;;9.27;3.00;;;;;;;18.00;61.85;98508.25;5053477;28;20235;-69
2022/06/13 07:41:10;;;;;;;6.50;2.97;;;;;;;18.24;62.68;98514.09;5053531;28;20213;-68
2022/06/13 07:43:40;;;;;;;4.93;2.30;;;;;;;18.49;65.71;98515.16;5053641;28;20194;-69
2022/06/13 07:46:11;;;;;;;5.03;2.10;;;;;;;18.78;62.51;98513.72;5053020;28;20209;-69
2022/06/13 07:48:38;;;;;;;6.17;2.63;;;;;;;18.65;60.85;98516.91;5070271;22;20234;-69
2022/06/13 07:51:05;;;;;;;7.07;3.00;;;;;;;18.75;62.15;98510.75;5032977;28;20249;-68
2022/06/13 07:53:33;;;;;;;7.60;2.70;;;;;;;19.03;61.70;98515.75;5032803;28;20660;-68
2022/06/13 07:56:00;;;;;;;6.50;2.73;;;;;;;18.82;58.56;98519.41;5033281;28;20240;-68
2022/06/13 07:58:32;;;;;;;5.33;2.10;;;;;;;18.69;61.62;98517.97;5031797;28;20313;-69
2022/06/13 08:00:59;;;;;;;6.93;2.43;;;;;;;18.88;60.91;98516.50;5033043;28;20281;-69
2022/06/13 08:03:29;;;;;;;9.20;3.43;;;;;;;19.00;58.55;98511.69;5032871;28;20208;-69
2022/06/13 08:05:56;;;;;;;6.00;2.87;;;;;;;18.90;59.30;98517.03;5033088;28;20202;-70
2022/06/13 08:08:22;;;;;;;5.47;2.20;;;;;;;18.92;61.83;98517.56;5032833;28;20771;-69
2022/06/13 08:10:53;;;;;;;7.73;2.80;;;;;;;19.16;57.92;98534.16;5033059;28;20730;-70
2022/06/13 08:13:22;;;;;;;5.20;2.47;;;;;;;19.30;55.58;98522.66;5033171;28;20293;-70
2022/06/13 08:15:50;;;;;;;5.77;2.70;;;;;;;19.19;56.14;98520.16;5033190;28;20222;-69
2022/06/13 08:18:17;;;;;;;4.63;2.30;;;;;;;19.50;56.54;98533.53;5032775;28;20249;-69
2022/06/13 08:20:45;;;;;;;5.40;2.80;;;;;;;19.33;58.46;98524.84;5032770;28;20660;-69
2022/06/13 08:23:14;;;;;;;5.83;2.50;;;;;;;19.37;57.94;98530.50;5032414;28;20206;-69
2022/06/13 08:25:41;;;;;;;8.97;2.57;;;;;;;19.34;57.28;98537.25;5032597;28;20206;-69
2022/06/13 08:28:09;;;;;;;7.60;2.90;;;;;;;19.54;57.58;98536.53;5032447;28;20218;-69
2022/06/13 08:30:50;;;;;;;6.73;3.00;;;;;;;19.53;58.22;98546.50;5032834;28;20202;-69
2022/06/13 08:33:17;;;;;;;6.77;2.60;;;;;;;19.51;57.69;98543.22;5032840;28;20225;-69
2022/06/13 08:35:44;;;;;;;6.27;2.53;;;;;;;19.48;59.55;98535.69;5032399;28;20278;-69
2022/06/13 08:38:10;;;;;;;5.87;2.70;;;;;;;20.01;53.47;98539.06;5032694;28;20515;-68
2022/06/13 08:40:54;;;;;;;9.17;2.57;;;;;;;19.49;53.76;98545.38;5032699;28;20245;-68
2022/06/13 08:43:52;;;;;;;7.57;2.87;;;;;;;19.43;57.73;98534.84;5032934;28;20281;-69
2022/06/13 08:46:49;;;;;;;6.70;2.67;;;;;;;19.77;55.29;98546.03;5032306;28;20513;-68
2022/06/13 08:49:40;;;;;;;6.77;2.83;;;;;;;19.43;57.15;98548.34;5032601;28;20627;-69
2022/06/13 08:52:07;;;;;;;6.83;3.00;;;;;;;19.82;54.13;98554.13;5033298;28;20285;-68
2022/06/13 08:54:35;;;;;;;7.30;3.00;;;;;;;19.59;55.12;98548.13;5032563;28;20226;-68
2022/06/13 08:57:08;;;;;;;6.67;2.67;;;;;;;19.80;54.64;98556.28;5032613;28;20210;-69
2022/06/13 08:59:48;;;;;;;6.10;2.50;;;;;;;19.54;55.91;98558.91;5032279;28;20704;-69
2022/06/13 09:02:20;;;;;;;8.13;2.93;;;;;;;19.65;54.94;98557.06;5033192;28;20191;-69
2022/06/13 09:04:52;;;;;;;4.53;2.60;;;;;;;19.90;55.20;98559.00;5032696;28;20281;-69
2022/06/13 09:07:24;;;;;;;7.27;2.80;;;;;;;19.71;55.42;98561.38;5032902;28;20190;-69
2022/06/13 09:10:00;;;;;;;7.03;2.50;;;;;;;20.09;52.99;98569.09;5032426;28;20194;-69
2022/06/13 09:12:47;;;;;;;8.57;3.03;;;;;;;19.87;54.04;98562.22;5033168;28;20628;-69
2022/06/13 09:15:21;;;;;;;5.77;2.97;;;;;;;20.42;52.21;98573.16;5003342;28;20224;-69
2022/06/13 09:18:00;;;;;;;4.57;2.87;;;;;;;20.50;50.98;98572.63;5036791;28;20237;-69
2022/06/13 09:20:38;;;;;;;5.77;2.60;;;;;;;19.64;51.68;98579.72;5035997;28;20629;-69
2022/06/13 09:23:18;;;;;;;7.80;2.60;;;;;;;19.77;54.43;98568.44;5035775;28;20698;-69
2022/06/13 09:25:59;;;;;;;6.90;2.63;;;;;;;20.25;55.00;98568.00;5035467;28;20633;-69
2022/06/13 09:29:00;;;;;;;4.93;2.70;;;;;;;20.07;52.63;98562.31;5036139;28;20229;-70
2022/06/13 09:31:40;;;;;;;4.37;2.50;;;;;;;20.36;50.89;98566.13;5036156;28;20312;-69
2022/06/13 09:34:19;;;;;;;8.30;2.83;;;;;;;20.07;50.83;98567.69;5019147;28;20281;-69
2022/06/13 09:37:02;;;;;;;6.30;2.60;;;;;;;20.33;51.63;98572.88;5018579;28;20273;-69
2022/06/13 09:39:28;;;;;;;5.07;2.20;;;;;;;20.70;50.28;98551.03;5035446;28;20230;-69
2022/06/13 09:42:21;;;;;;;5.27;2.50;;;;;;;20.83;49.03;98566.66;5035156;28;20293;-69
2022/06/13 09:45:02;;;;;;;6.03;2.63;;;;;;;20.79;54.36;98576.41;5018472;28;20273;-69
2022/06/13 09:47:34;;;;;;;6.33;2.50;;;;;;;20.53;49.25;98564.78;5018606;28;20197;-69
2022/06/13 09:50:23;;;;;;;5.33;2.47;;;;;;;20.08;50.39;98567.44;5035255;28;20297;-69
2022/06/13 09:53:22;;;;;;;8.97;2.33;;;;;;;20.65;48.40;98568.03;5035611;28;20187;-69
2022/06/13 09:55:53;;;;;;;4.00;2.17;;;;;;;20.86;46.72;98566.94;5035545;28;20214;-69
2022/06/13 09:58:51;;;;;;;4.53;2.10;;;;;;;21.12;44.49;98568.53;5017866;28;20229;-69
2022/06/13 10:01:33;;;;;;;3.90;2.27;;;;;;;21.21;46.63;98563.41;5035487;28;20365;-68
2022/06/13 10:04:27;;;;;;;5.93;2.50;;;;;;;21.06;50.60;98560.69;5035486;28;20189;-68
2022/06/13 10:07:08;;;;;;;3.97;2.20;;;;;;;21.07;49.63;98560.44;5035122;28;20240;-68
2022/06/13 10:09:57;;;;;;;3.57;2.27;;;;;;;20.90;48.42;98554.53;5034955;28;20712;-69
2022/06/13 10:12:46;;;;;;;5.50;2.00;;;;;;;21.40;44.10;98559.00;5002862;28;20190;-69
2022/06/13 10:15:31;;;;;;;4.97;2.10;;;;;;;21.53;46.21;98553.00;5035272;28;20217;-69
2022/06/13 10:18:16;;;;;;;3.87;2.10;;;;;;;21.61;42.63;98564.06;5034638;28;20233;-69
2022/06/13 10:21:18;;;;;;;6.70;2.40;;;;;;;21.48;44.56;98547.63;5034983;28;20202;-69
2022/06/13 10:24:11;;;;;;;5.40;2.57;;;;;;;20.90;45.50;98559.94;4973262;28;20298;-69
2022/06/13 10:26:50;;;;;;;28.23;2.73;;;;;;;21.35;44.15;98565.22;5017965;28;20256;-70
2022/06/13 10:29:32;;;;;;;3.83;2.20;;;;;;;20.78;43.38;98563.97;5034888;28;20225;-69
2022/06/13 10:31:58;;;;;;;5.77;2.20;;;;;;;20.92;44.27;98567.75;5034737;28;20240;-70
2022/06/13 10:34:28;;;;;;;5.00;2.50;;;;;;;20.44;44.58;98566.41;5034596;28;20209;-70
2022/06/13 10:36:55;;;;;;;4.63;2.40;;;;;;;20.53;45.83;98567.47;5034557;28;20257;-70
2022/06/13 10:39:24;;;;;;;4.50;2.17;;;;;;;21.22;46.33;98555.00;5034144;28;20225;-69
2022/06/13 10:41:55;;;;;;;4.40;2.20;;;;;;;20.70;46.63;98568.03;5034050;28;20292;-70
2022/06/13 10:44:22;;;;;;;3.53;1.90;;;;;;;21.22;42.38;98548.78;5017117;28;20190;-70
2022/06/13 10:46:52;;;;;;;5.87;2.10;;;;;;;20.85;43.81;98554.50;5034505;28;20209;-70
2022/06/13 10:49:25;;;;;;;4.30;2.37;;;;;;;20.86;45.77;98566.13;5034023;28;20647;-71
2022/06/13 10:51:57;;;;;;;4.17;1.93;;;;;;;21.63;45.73;98555.66;5034218;28;20273;-70
2022/06/13 10:54:30;;;;;;;5.23;2.20;;;;;;;21.73;43.48;98556.47;5016730;28;20286;-70
2022/06/13 10:57:03;;;;;;;3.57;1.57;;;;;;;21.52;41.65;98554.88;5033909;28;20206;-70
2022/06/13 10:59:33;;;;;;;3.93;2.33;;;;;;;21.02;42.48;98559.66;5033964;28;20796;-69
2022/06/13 11:02:23;;;;;;;3.80;2.07;;;;;;;21.03;43.24;98553.94;5033624;28;20729;-70
2022/06/13 11:05:14;;;;;;;2.50;1.60;;;;;;;21.71;42.25;98557.81;5033885;28;20186;-69
2022/06/13 11:07:55;;;;;;;3.47;1.80;;;;;;;21.72;40.63;98554.03;5024668;28;20288;-69
2022/06/13 11:10:37;;;;;;;5.17;1.83;;;;;;;21.72;39.90;98565.69;5033710;28;20621;-69
2022/06/13 11:13:13;;;;;;;4.43;1.97;;;;;;;21.92;41.04;98570.97;5033817;28;20292;-69
2022/06/13 11:24:20;;;;;;;4.30;2.07;;;;;;;22.48;44.85;98560.63;5033819;28;20640;-70
2022/06/13 11:29:35;;;;;;;4.40;2.00;;;;;;;22.32;40.94;98564.47;5033006;28;20220;-70
2022/06/13 11:32:06;;;;;;;2.83;1.70;;;;;;;22.12;41.44;98554.59;5034282;28;20214;-69
2022/06/13 11:34:39;;;;;;;5.03;2.17;;;;;;;22.04;43.93;98562.50;5033900;28;20190;-69
2022/06/13 11:37:14;;;;;;;4.50;2.10;;;;;;;21.49;41.97;98551.94;5033594;28;20206;-69
2022/06/13 11:39:46;;;;;;;5.90;2.20;;;;;;;21.53;43.52;98551.09;5033380;28;20316;-69
2022/06/13 11:42:27;;;;;;;4.57;1.93;;;;;;;21.36;42.24;98550.63;5033432;28;20213;-70
2022/06/13 11:45:02;;;;;;;3.67;2.27;;;;;;;21.51;41.84;98552.44;5033196;28;20194;-70
2022/06/13 11:47:49;;;;;;;3.90;1.90;;;;;;;22.03;39.73;98539.22;5033488;28;20189;-68
2022/06/13 11:50:38;;;;;;;5.10;1.93;;;;;;;21.91;40.99;98555.81;5033661;28;20221;-69
2022/06/13 11:56:00;;;;;;;3.87;1.93;;;;;;;21.49;44.91;98550.06;5033077;28;20201;-69
2022/06/13 11:58:30;;;;;;;3.63;2.07;;;;;;;21.37;40.58;98552.25;5032999;28;20317;-69
2022/06/13 12:01:23;;;;;;;3.93;1.70;;;;;;;22.03;41.92;98553.56;5033891;28;20190;-69
2022/06/13 12:03:59;;;;;;;4.20;1.87;;;;;;;21.94;40.21;98551.75;5030213;28;20201;-70
2022/06/13 12:06:26;;;;;;;3.10;1.63;;;;;;;21.46;40.42;98555.19;5033627;28;20227;-70
2022/06/13 12:09:14;;;;;;;3.17;1.57;;;;;;;21.12;40.93;98548.81;5033225;28;20284;-68
2022/06/13 12:11:47;;;;;;;3.00;1.80;;;;;;;21.04;43.02;98557.47;5032839;28;20309;-69
2022/06/13 12:14:14;;;;;;;6.60;2.00;;;;;;;21.55;40.08;98553.53;5032712;28;20667;-69
2022/06/13 12:16:50;;;;;;;5.00;2.00;;;;;;;22.00;43.58;98556.03;5033133;28;20566;-69
2022/06/13 12:19:22;;;;;;;3.40;1.97;;;;;;;21.98;39.05;98544.69;5033485;28;20315;-69
2022/06/13 12:22:07;;;;;;;3.10;1.70;;;;;;;22.13;36.69;98550.00;5032817;28;20209;-69
2022/06/13 12:24:58;;;;;;;2.93;1.83;;;;;;;21.84;37.87;98540.97;5033042;28;20205;-69
2022/06/13 12:27:49;;;;;;;2.30;1.40;;;;;;;22.26;39.90;98549.38;5033244;28;20201;-69
2022/06/13 12:30:53;;;;;;;4.80;1.90;;;;;;;22.30;38.47;98545.78;5032559;28;20635;-69
2022/06/13 12:33:50;;;;;;;5.60;1.60;;;;;;;21.86;40.43;98542.31;4972127;28;20214;-69
2022/06/13 12:36:28;;;;;;;3.37;1.70;;;;;;;22.10;37.92;98548.66;5032533;28;20214;-69
2022/06/13 12:39:16;;;;;;;2.93;1.80;;;;;;;22.48;38.21;98542.44;5032284;28;20324;-69
2022/06/13 12:42:05;;;;;;;4.23;1.83;;;;;;;22.23;37.35;98550.75;5032994;28;20281;-69
2022/06/13 12:44:43;;;;;;;1.87;1.43;;;;;;;22.21;35.84;98557.53;5032612;28;20733;-69
2022/06/13 12:47:31;;;;;;;3.17;1.40;;;;;;;22.60;38.35;98551.03;5035364;28;20268;-69
2022/06/13 12:50:13;;;;;;;3.20;1.63;;;;;;;22.34;36.24;98556.91;5036353;28;20300;-69
2022/06/13 12:52:51;;;;;;;3.13;1.60;;;;;;;22.52;36.04;98557.03;5036309;28;20665;-69
2022/06/13 12:56:00;;;;;;;3.40;1.70;;;;;;;23.00;37.45;98552.53;5036735;28;20194;-70